Time;durP1;ratioP1;P1;durP2;ratioP2;P2;SDS_P1;SDS_P2;PMS_P1;PMS_P2;Temp;Humidity;BMP_temperature;BMP_pressure;BME280_temperature;BME280_humidity;BME280_pressure;Samples;Min_cycle;Max_cycle;Signal;HPM_P1;HPM_P2
2024/03/16 00:00:09;;;;;;;0.98;0.70;;;;;;;10.02;78.90;100235.81;2489493;28;20057;-77
2024/03/16 00:01:23;;;;;;;0.65;0.65;;;;;;;10.02;79.05;100227.13;2485816;29;20054;-77
2024/03/16 00:02:37;;;;;;;1.02;0.75;;;;;;;10.00;79.00;100240.19;2480211;28;20063;-77
2024/03/16 00:03:51;;;;;;;0.65;0.65;;;;;;;9.99;79.18;100245.41;2490014;28;20508;-77
2024/03/16 00:05:06;;;;;;;0.63;0.63;;;;;;;9.98;79.35;100249.75;2487717;29;20043;-77
2024/03/16 00:06:19;;;;;;;0.75;0.75;;;;;;;9.96;79.24;100243.69;2481086;29;20047;-77
2024/03/16 00:07:34;;;;;;;1.20;0.80;;;;;;;9.95;79.39;100247.19;2490318;28;20415;-77
2024/03/16 00:08:48;;;;;;;1.85;0.85;;;;;;;9.95;79.41;100244.59;2487560;29;20059;-77
2024/03/16 00:10:02;;;;;;;2.58;1.00;;;;;;;9.94;79.41;100253.31;2481265;29;20043;-77
2024/03/16 00:11:16;;;;;;;0.70;0.70;;;;;;;9.93;79.19;100248.09;2487768;29;20054;-77
2024/03/16 00:12:31;;;;;;;0.45;0.45;;;;;;;9.91;79.21;100255.91;2485756;29;20043;-77
2024/03/16 00:13:44;;;;;;;3.25;1.00;;;;;;;9.89;79.30;100247.28;2494922;28;20051;-77
2024/03/16 00:14:59;;;;;;;1.20;0.80;;;;;;;9.86;79.42;100247.31;2487605;29;20141;-77
2024/03/16 00:16:12;;;;;;;1.00;0.80;;;;;;;9.81;79.44;100249.97;2491190;28;20057;-77
2024/03/16 00:17:27;;;;;;;1.70;0.90;;;;;;;9.78;79.58;100252.63;2496448;28;20085;-77
2024/03/16 00:18:41;;;;;;;1.90;1.00;;;;;;;9.74;79.73;100256.13;2503270;28;20475;-77
2024/03/16 00:19:55;;;;;;;1.10;0.90;;;;;;;9.73;79.94;100256.16;2493695;29;20051;-76
2024/03/16 00:21:09;;;;;;;1.00;0.70;;;;;;;9.70;80.04;100250.97;2481483;29;20051;-76
2024/03/16 00:22:24;;;;;;;1.08;0.77;;;;;;;9.67;80.30;100249.25;2480926;29;20039;-77
2024/03/16 00:23:38;;;;;;;0.57;0.57;;;;;;;9.66;80.28;100238.88;2490931;28;20051;-76
2024/03/16 00:24:52;;;;;;;0.80;0.50;;;;;;;9.65;80.63;100242.34;2487585;29;20554;-76
2024/03/16 00:26:07;;;;;;;1.20;0.70;;;;;;;9.64;80.44;100233.66;2480900;29;20536;-76
2024/03/16 00:27:22;;;;;;;1.67;0.80;;;;;;;9.61;80.70;100241.53;2491060;28;20043;-76
2024/03/16 00:28:35;;;;;;;2.65;0.80;;;;;;;9.60;80.72;100235.47;2487434;29;20587;-76
2024/03/16 00:29:50;;;;;;;0.65;0.60;;;;;;;9.58;80.94;100241.56;2488971;28;20058;-76
2024/03/16 00:31:03;;;;;;;0.95;0.80;;;;;;;9.57;81.09;100243.28;2497100;28;20046;-76
2024/03/16 00:32:18;;;;;;;1.25;0.65;;;;;;;9.56;81.06;100233.75;2493465;29;20472;-76
2024/03/16 00:33:31;;;;;;;1.55;0.93;;;;;;;9.57;81.25;100239.81;2477422;29;20047;-76
2024/03/16 00:34:46;;;;;;;1.85;0.82;;;;;;;9.56;81.38;100238.97;2486970;29;20047;-76
2024/03/16 00:36:00;;;;;;;1.17;0.93;;;;;;;9.57;81.32;100238.06;2490850;28;20047;-77
2024/03/16 00:37:14;;;;;;;0.57;0.57;;;;;;;9.59;81.48;100238.06;2502880;28;20046;-76
2024/03/16 00:38:28;;;;;;;2.30;0.85;;;;;;;9.58;81.32;100239.81;2486732;29;20528;-76
2024/03/16 00:39:43;;;;;;;2.40;0.70;;;;;;;9.58;81.41;100242.44;2481512;29;20548;-76
2024/03/16 00:40:57;;;;;;;1.65;1.38;;;;;;;9.57;81.44;100232.88;2490990;28;20069;-76
2024/03/16 00:42:11;;;;;;;1.13;0.80;;;;;;;9.60;81.43;100234.56;2486399;29;20047;-76
2024/03/16 00:43:25;;;;;;;1.77;0.80;;;;;;;9.59;81.46;100228.50;2481183;29;20054;-76
2024/03/16 00:44:39;;;;;;;1.08;0.80;;;;;;;9.60;81.35;100229.38;2487883;28;20051;-76
2024/03/16 00:45:53;;;;;;;2.83;0.98;;;;;;;9.61;81.29;100228.50;2486848;29;20043;-77
2024/03/16 00:47:07;;;;;;;1.80;0.68;;;;;;;9.60;81.50;100221.53;2490334;28;20500;-76
2024/03/16 00:48:21;;;;;;;1.00;0.80;;;;;;;9.61;81.54;100221.53;2496993;28;20050;-76
2024/03/16 00:49:36;;;;;;;2.92;0.90;;;;;;;9.60;81.50;100235.47;2492954;29;20059;-78
2024/03/16 00:50:49;;;;;;;0.80;0.80;;;;;;;9.59;81.55;100218.09;2481149;29;20051;-77
2024/03/16 00:52:04;;;;;;;2.28;0.80;;;;;;;9.60;81.48;100226.75;2485465;28;20051;-77
2024/03/16 00:53:18;;;;;;;1.17;0.98;;;;;;;9.60;81.49;100218.94;2484493;29;20508;-77
2024/03/16 00:54:32;;;;;;;1.63;0.93;;;;;;;9.59;81.38;100220.69;2481109;29;20127;-77
2024/03/16 00:55:46;;;;;;;1.27;0.75;;;;;;;9.58;81.45;100213.78;2487162;29;20051;-77
2024/03/16 00:57:01;;;;;;;2.88;0.90;;;;;;;9.59;81.52;100215.47;2481029;29;20443;-77
2024/03/16 00:58:14;;;;;;;3.00;0.80;;;;;;;9.59;81.68;100215.47;2479070;29;20473;-78
2024/03/16 00:59:29;;;;;;;1.60;0.80;;;;;;;9.59;81.65;100210.28;2477130;29;20048;-77
2024/03/16 01:00:42;;;;;;;0.80;0.77;;;;;;;9.60;81.52;100218.94;2471234;29;20048;-77
2024/03/16 01:01:57;;;;;;;1.55;1.45;;;;;;;9.60;81.66;100216.34;2470450;29;20040;-77
2024/03/16 01:03:10;;;;;;;1.08;0.88;;;;;;;9.61;81.60;100225.91;2467958;29;20048;-77
2024/03/16 01:04:25;;;;;;;2.85;0.95;;;;;;;9.63;81.71;100215.44;2471821;29;20048;-77
2024/03/16 01:05:39;;;;;;;1.08;0.57;;;;;;;9.65;81.58;100222.34;2486462;29;20152;-77
2024/03/16 01:06:53;;;;;;;3.08;1.05;;;;;;;9.67;81.64;100219.75;2483596;29;20067;-77
2024/03/16 01:08:07;;;;;;;1.15;0.90;;;;;;;9.68;81.45;100221.47;2471142;29;20525;-77
2024/03/16 01:09:22;;;;;;;1.10;0.80;;;;;;;9.69;81.59;100223.19;2477624;29;20054;-77
2024/03/16 01:10:35;;;;;;;1.42;0.70;;;;;;;9.70;81.43;100215.34;2486181;29;20047;-77
2024/03/16 01:11:50;;;;;;;2.88;1.98;;;;;;;9.71;81.50;100221.44;2481002;29;20057;-77
2024/03/16 01:13:04;;;;;;;1.33;0.80;;;;;;;9.73;81.30;100217.06;2481030;29;20105;-77
2024/03/16 01:14:18;;;;;;;2.33;0.63;;;;;;;9.75;81.16;100216.16;2480388;29;20051;-77
2024/03/16 01:15:32;;;;;;;1.73;0.90;;;;;;;9.77;81.14;100221.38;2489163;28;20589;-78
2024/03/16 01:16:46;;;;;;;1.38;0.80;;;;;;;9.78;81.20;100217.84;2502435;28;20108;-77
2024/03/16 01:18:00;;;;;;;1.20;0.57;;;;;;;9.81;81.25;100217.84;2486211;29;20045;-77
2024/03/16 01:19:14;;;;;;;1.05;0.65;;;;;;;9.82;81.18;100219.56;2480843;29;20050;-77
2024/03/16 01:20:29;;;;;;;1.08;0.93;;;;;;;9.83;81.14;100221.28;2490470;28;20055;-77
2024/03/16 01:21:42;;;;;;;1.95;0.80;;;;;;;9.84;81.07;100223.00;2486557;29;20047;-77
2024/03/16 01:22:58;;;;;;;0.82;0.77;;;;;;;9.86;80.76;100217.78;2490606;28;20058;-77
2024/03/16 01:24:12;;;;;;;2.67;0.60;;;;;;;9.88;80.79;100214.25;2496695;28;20055;-77
2024/03/16 01:25:26;;;;;;;1.50;1.00;;;;;;;9.90;80.72;100216.84;2502196;28;20043;-78
2024/03/16 01:26:40;;;;;;;2.63;1.63;;;;;;;9.91;80.67;100219.44;2500925;28;20591;-77
2024/03/16 01:27:55;;;;;;;1.63;0.70;;;;;;;9.93;80.57;100217.66;2480490;29;20085;-77
2024/03/16 01:29:13;;;;;;;1.38;0.70;;;;;;;9.95;80.31;100220.28;2480856;29;20055;-77
2024/03/16 01:30:28;;;;;;;0.80;0.73;;;;;;;9.96;80.42;100219.38;2491203;28;20121;-78
2024/03/16 01:31:41;;;;;;;2.70;1.05;;;;;;;9.97;80.23;100214.16;2487567;29;20122;-78
2024/03/16 01:32:56;;;;;;;2.67;0.77;;;;;;;9.98;80.33;100220.22;2489783;28;20046;-77
2024/03/16 01:34:10;;;;;;;2.72;1.13;;;;;;;9.99;80.32;100216.72;2495603;28;20056;-77
2024/03/16 01:35:25;;;;;;;6.65;0.90;;;;;;;10.01;80.25;100212.34;2492829;29;20056;-77
2024/03/16 01:36:39;;;;;;;2.67;0.77;;;;;;;10.03;79.91;100208.84;2480688;29;20136;-78
2024/03/16 01:37:53;;;;;;;1.63;1.33;;;;;;;10.06;80.08;100207.94;2480012;29;20208;-77
2024/03/16 01:39:11;;;;;;;3.25;1.38;;;;;;;10.08;79.93;100210.53;2480562;29;20059;-78
2024/03/16 01:40:25;;;;;;;1.40;1.08;;;;;;;10.10;79.84;100208.78;2481849;29;20134;-77
2024/03/16 01:41:40;;;;;;;1.45;0.88;;;;;;;10.10;79.80;100209.63;2482676;29;20047;-78
2024/03/16 01:42:54;;;;;;;5.70;0.88;;;;;;;10.12;79.84;100201.78;2480904;29;20113;-77
2024/03/16 01:44:10;;;;;;;2.92;1.00;;;;;;;10.13;79.79;100206.13;2486982;29;20126;-78
2024/03/16 01:45:25;;;;;;;2.83;0.80;;;;;;;10.15;79.64;100206.97;2476984;29;20044;-78
2024/03/16 01:46:39;;;;;;;1.60;1.10;;;;;;;10.17;79.54;100213.00;2480551;29;20047;-78
2024/03/16 01:47:54;;;;;;;1.63;0.80;;;;;;;10.18;79.34;100206.94;2480418;29;20061;-78
2024/03/16 01:49:08;;;;;;;4.03;1.10;;;;;;;10.19;79.42;100219.94;2496569;28;20504;-77
2024/03/16 01:50:23;;;;;;;5.28;1.17;;;;;;;10.22;79.24;100219.91;2486131;29;20043;-77
2024/03/16 01:51:36;;;;;;;0.73;0.73;;;;;;;10.21;79.24;100212.94;2490034;28;20039;-77
2024/03/16 01:52:51;;;;;;;1.52;0.85;;;;;;;10.23;79.32;100220.75;2496140;28;20051;-78
2024/03/16 01:54:05;;;;;;;1.73;1.05;;;;;;;10.24;79.29;100230.28;2492492;28;20044;-77
2024/03/16 01:55:19;;;;;;;2.75;0.98;;;;;;;10.25;79.42;100230.28;2480526;29;20408;-77
2024/03/16 01:56:34;;;;;;;2.10;1.00;;;;;;;10.25;79.40;100225.06;2486859;29;20101;-77
2024/03/16 01:57:50;;;;;;;1.80;0.88;;;;;;;10.27;79.47;100238.06;2485892;29;20054;-78
2024/03/16 01:59:03;;;;;;;1.52;1.17;;;;;;;10.25;79.55;100238.13;2481255;29;20051;-77
2024/03/16 02:00:18;;;;;;;1.10;0.90;;;;;;;10.27;79.47;100245.91;2487012;29;20055;-77
2024/03/16 02:01:32;;;;;;;2.85;1.60;;;;;;;10.26;79.50;100254.63;2489621;28;20051;-77
2024/03/16 02:02:46;;;;;;;3.22;1.40;;;;;;;10.21;79.59;100253.81;2486672;29;20051;-77
2024/03/16 02:04:00;;;;;;;1.45;1.20;;;;;;;10.16;79.83;100256.47;2489919;28;20416;-77
2024/03/16 02:05:15;;;;;;;1.50;1.17;;;;;;;10.09;79.91;100262.66;2486726;29;20110;-77
2024/03/16 02:06:28;;;;;;;1.30;1.13;;;;;;;10.02;80.07;100259.28;2486646;28;20503;-77
2024/03/16 02:07:43;;;;;;;2.40;1.08;;;;;;;9.94;80.27;100261.13;2492869;28;20051;-78
2024/03/16 02:09:00;;;;;;;2.17;1.50;;;;;;;9.84;80.53;100256.91;2486510;29;20119;-76
2024/03/16 02:10:14;;;;;;;2.10;1.05;;;;;;;9.74;81.03;100269.16;2476597;29;20051;-76
2024/03/16 02:11:28;;;;;;;4.13;1.00;;;;;;;9.69;81.05;100267.50;2492586;28;20055;-75
2024/03/16 02:12:42;;;;;;;3.75;1.50;;;;;;;9.61;81.33;100255.41;2492485;29;20047;-76
2024/03/16 02:13:56;;;;;;;2.45;1.40;;;;;;;9.56;81.78;100258.94;2495676;28;20077;-76
2024/03/16 02:15:11;;;;;;;1.23;1.05;;;;;;;9.51;81.84;100261.59;2502465;28;20515;-76
2024/03/16 02:16:24;;;;;;;6.35;1.63;;;;;;;9.46;81.93;100255.56;2492494;29;20043;-76
2024/03/16 02:17:39;;;;;;;3.60;1.40;;;;;;;9.42;82.46;100261.69;2479693;29;20043;-76
2024/03/16 02:18:52;;;;;;;2.97;1.20;;;;;;;9.41;82.40;100264.31;2472552;28;20063;-76
2024/03/16 02:20:09;;;;;;;1.42;1.05;;;;;;;9.38;82.68;100260.84;2489833;28;20510;-76
2024/03/16 02:21:22;;;;;;;2.22;1.10;;;;;;;9.34;82.78;100258.28;2486244;29;20082;-76
2024/03/16 02:22:37;;;;;;;28.05;1.88;;;;;;;9.32;82.90;100254.84;2480563;29;20051;-76
2024/03/16 02:23:51;;;;;;;3.58;1.50;;;;;;;9.29;82.95;100254.88;2489932;28;20073;-76
2024/03/16 02:25:07;;;;;;;2.10;1.90;;;;;;;9.26;83.33;100257.50;2486350;29;20043;-77
2024/03/16 02:26:20;;;;;;;3.72;1.40;;;;;;;9.24;83.44;100252.34;2479869;28;20047;-77
2024/03/16 02:27:35;;;;;;;2.75;1.33;;;;;;;9.23;83.68;100254.94;2489460;28;20053;-77
2024/03/16 02:28:48;;;;;;;1.92;1.20;;;;;;;9.22;83.78;100258.44;2485850;29;20059;-75
2024/03/16 02:30:03;;;;;;;5.43;2.30;;;;;;;9.21;83.67;100256.69;2479876;29;20048;-77
2024/03/16 02:31:18;;;;;;;1.65;1.23;;;;;;;9.19;83.92;100251.53;2487840;29;20047;-77
2024/03/16 02:32:33;;;;;;;3.95;1.90;;;;;;;9.16;84.19;100247.19;2489412;28;20130;-77
2024/03/16 02:33:47;;;;;;;2.00;1.33;;;;;;;9.15;84.46;100253.25;2494411;28;20174;-77
2024/03/16 02:35:01;;;;;;;4.10;1.58;;;;;;;9.15;84.45;100252.41;2480496;29;20052;-77
2024/03/16 02:36:16;;;;;;;1.77;1.33;;;;;;;9.13;84.37;100259.38;2480129;29;20413;-77
2024/03/16 02:37:29;;;;;;;2.70;1.50;;;;;;;9.12;84.72;100253.31;2495261;28;20488;-77
2024/03/16 02:38:45;;;;;;;2.15;1.52;;;;;;;9.12;84.85;100252.44;2486192;29;20047;-77
2024/03/16 02:39:59;;;;;;;1.75;1.55;;;;;;;9.10;84.77;100249.84;2490033;28;20114;-76
2024/03/16 02:41:13;;;;;;;1.35;1.25;;;;;;;9.08;84.99;100262.00;2496007;28;20479;-77
2024/03/16 02:42:27;;;;;;;4.25;1.27;;;;;;;9.08;85.14;100254.19;2501711;28;20089;-77
2024/03/16 02:43:42;;;;;;;6.70;1.75;;;;;;;9.08;85.22;100259.41;2492269;29;20055;-77
2024/03/16 02:44:55;;;;;;;1.90;1.50;;;;;;;9.07;85.18;100262.03;2478680;29;20055;-77
2024/03/16 02:46:10;;;;;;;1.58;1.33;;;;;;;9.06;85.39;100265.50;2489158;28;20043;-77
2024/03/16 02:47:24;;;;;;;2.47;1.88;;;;;;;9.04;85.54;100262.94;2495172;28;20530;-77
2024/03/16 02:48:38;;;;;;;2.50;1.35;;;;;;;9.04;85.61;100275.09;2502129;28;20053;-77
2024/03/16 02:49:52;;;;;;;4.70;1.60;;;;;;;9.04;85.69;100265.53;2491750;28;20058;-76
2024/03/16 02:51:07;;;;;;;2.80;2.40;;;;;;;9.03;85.78;100261.19;2480279;29;20101;-77
2024/03/16 02:52:20;;;;;;;1.45;1.30;;;;;;;9.01;85.62;100273.38;2480161;29;20086;-77
2024/03/16 02:53:35;;;;;;;5.88;1.55;;;;;;;9.02;85.72;100269.88;2489049;28;20120;-77
2024/03/16 02:54:49;;;;;;;1.45;1.30;;;;;;;9.02;85.75;100272.47;2486091;29;20130;-77
2024/03/16 02:56:04;;;;;;;1.83;1.10;;;;;;;9.02;86.01;100275.09;2489650;28;20057;-77
2024/03/16 02:57:18;;;;;;;2.28;1.67;;;;;;;9.03;85.88;100276.78;2485634;29;20505;-77
2024/03/16 02:58:32;;;;;;;3.08;1.70;;;;;;;9.04;86.02;100282.88;2480245;29;20043;-77
2024/03/16 02:59:46;;;;;;;1.70;1.60;;;;;;;9.03;86.17;100279.41;2480069;29;20059;-77
2024/03/16 03:01:00;;;;;;;6.10;1.40;;;;;;;9.04;86.17;100277.69;2488946;28;20503;-77
2024/03/16 03:02:14;;;;;;;2.67;1.50;;;;;;;9.05;86.29;100282.00;2485578;28;20043;-77
2024/03/16 03:03:29;;;;;;;2.15;1.20;;;;;;;9.04;86.03;100285.50;2489690;28;20047;-77
2024/03/16 03:04:44;;;;;;;1.80;1.45;;;;;;;9.04;86.14;100277.69;2495426;28;20047;-77
2024/03/16 03:05:57;;;;;;;5.35;1.30;;;;;;;9.04;86.33;100281.16;2491728;28;20055;-77
2024/03/16 03:07:12;;;;;;;3.10;1.40;;;;;;;9.04;86.17;100277.69;2479311;29;20049;-78
2024/03/16 03:08:26;;;;;;;3.95;1.75;;;;;;;9.03;86.35;100279.41;2480149;29;20043;-77
2024/03/16 03:09:41;;;;;;;3.25;1.38;;;;;;;9.02;86.25;100275.09;2479755;29;20046;-76
2024/03/16 03:10:56;;;;;;;2.85;1.58;;;;;;;9.02;86.44;100277.69;2485990;29;20062;-76
2024/03/16 03:12:11;;;;;;;3.85;2.33;;;;;;;9.01;86.30;100281.19;2480433;29;20051;-76
2024/03/16 03:13:24;;;;;;;1.02;0.90;;;;;;;9.01;86.34;100286.38;2480052;29;20061;-76
2024/03/16 03:14:39;;;;;;;3.42;1.45;;;;;;;9.00;86.30;100287.25;2476480;29;20536;-76
2024/03/16 03:15:53;;;;;;;4.82;1.65;;;;;;;8.99;86.46;100293.34;2489345;28;20621;-76
2024/03/16 03:17:08;;;;;;;4.53;1.73;;;;;;;8.97;86.43;100291.63;2495419;28;20061;-75
2024/03/16 03:18:24;;;;;;;3.00;1.50;;;;;;;8.97;86.56;100289.88;2495286;28;20054;-76
2024/03/16 03:19:38;;;;;;;5.68;1.55;;;;;;;8.95;86.42;100284.66;2502062;28;20090;-76
2024/03/16 03:20:52;;;;;;;2.72;1.92;;;;;;;8.95;86.68;100289.88;2492095;29;20066;-76
2024/03/16 03:22:07;;;;;;;6.88;2.17;;;;;;;8.94;86.53;100288.16;2479072;29;20051;-76
2024/03/16 03:23:20;;;;;;;3.47;1.58;;;;;;;8.93;86.65;100293.34;2489117;28;20073;-76
2024/03/16 03:24:35;;;;;;;2.72;1.90;;;;;;;8.91;86.70;100300.34;2485719;29;20412;-76
2024/03/16 03:25:48;;;;;;;4.22;1.95;;;;;;;8.90;86.66;100290.78;2479470;29;20052;-76
2024/03/16 03:27:03;;;;;;;4.32;2.33;;;;;;;8.90;86.70;100293.38;2479914;29;20055;-76
2024/03/16 03:28:17;;;;;;;4.18;2.00;;;;;;;8.88;86.87;100296.03;2486076;29;20054;-76
2024/03/16 03:29:31;;;;;;;3.03;2.05;;;;;;;8.89;86.83;100296.88;2482144;29;20051;-76
2024/03/16 03:30:45;;;;;;;4.03;2.00;;;;;;;8.87;87.01;100293.41;2495367;28;20047;-76
2024/03/16 03:31:59;;;;;;;8.02;2.30;;;;;;;8.86;87.07;100281.28;2486039;29;20129;-76
2024/03/16 03:33:13;;;;;;;4.47;2.13;;;;;;;8.85;87.08;100290.81;2479780;29;20676;-76
2024/03/16 03:34:28;;;;;;;5.18;2.85;;;;;;;8.86;86.98;100286.50;2485501;29;20047;-76
2024/03/16 03:35:42;;;;;;;3.88;1.65;;;;;;;8.85;87.04;100296.00;2484176;29;20051;-76
2024/03/16 03:36:56;;;;;;;4.45;2.00;;;;;;;8.85;86.97;100279.53;2493595;28;20052;-76
2024/03/16 03:38:10;;;;;;;4.85;3.20;;;;;;;8.83;87.25;100279.56;2485412;29;20043;-76
2024/03/16 03:39:25;;;;;;;5.15;3.08;;;;;;;8.83;87.20;100283.91;2490979;28;20049;-76
2024/03/16 03:40:39;;;;;;;3.75;2.13;;;;;;;8.83;87.09;100286.50;2497640;28;20134;-76
2024/03/16 03:41:54;;;;;;;4.35;2.33;;;;;;;8.80;86.97;100283.91;2493048;28;20781;-76
2024/03/16 03:43:17;;;;;;;2.50;2.30;;;;;;;8.79;87.10;100284.81;2481564;29;20459;-76
2024/03/16 03:44:36;;;;;;;4.28;2.25;;;;;;;8.78;87.00;100296.97;2489213;29;20058;-76
2024/03/16 03:45:50;;;;;;;7.05;2.45;;;;;;;8.76;87.03;100290.91;2488322;29;20072;-77
2024/03/16 03:47:07;;;;;;;2.85;2.15;;;;;;;8.73;87.12;100286.56;2482917;29;20055;-76
2024/03/16 03:48:36;;;;;;;2.10;1.90;;;;;;;8.73;87.29;100296.97;2497739;28;20043;-76
2024/03/16 03:49:51;;;;;;;3.10;1.75;;;;;;;8.72;87.35;100291.78;2493250;29;20066;-76
2024/03/16 03:51:05;;;;;;;4.75;1.77;;;;;;;8.70;87.32;100291.81;2485990;29;20051;-77
2024/03/16 03:52:20;;;;;;;6.55;1.90;;;;;;;8.67;87.27;100297.03;2482127;29;20102;-76
2024/03/16 03:53:33;;;;;;;4.72;1.80;;;;;;;8.65;87.16;100296.19;2481305;29;20047;-76
2024/03/16 03:54:48;;;;;;;5.50;1.63;;;;;;;8.63;87.21;100297.06;2491175;28;20165;-77
2024/03/16 03:56:02;;;;;;;3.17;1.38;;;;;;;8.61;87.40;100301.41;2503635;28;20053;-77
2024/03/16 03:57:16;;;;;;;1.42;1.30;;;;;;;8.58;87.17;100297.09;2487507;29;20047;-77
2024/03/16 03:58:30;;;;;;;2.83;1.25;;;;;;;8.57;87.37;100302.28;2477607;29;20059;-77
2024/03/16 03:59:44;;;;;;;2.55;1.55;;;;;;;8.54;87.41;100304.91;2495078;28;20474;-77
2024/03/16 04:00:59;;;;;;;4.90;1.88;;;;;;;8.52;87.21;100302.34;2479921;29;20079;-76
2024/03/16 04:02:14;;;;;;;2.97;1.30;;;;;;;8.50;87.39;100304.94;2481591;29;20063;-76
2024/03/16 04:03:28;;;;;;;1.98;1.30;;;;;;;8.49;87.33;100303.22;2497621;28;20054;-77
2024/03/16 04:04:42;;;;;;;3.20;1.33;;;;;;;8.49;87.39;100304.94;2487367;29;20051;-77
2024/03/16 04:05:56;;;;;;;3.55;1.20;;;;;;;8.49;87.47;100312.72;2484918;29;20048;-76
2024/03/16 04:07:10;;;;;;;7.50;1.40;;;;;;;8.49;87.69;100305.81;2481090;29;20057;-76
2024/03/16 04:08:24;;;;;;;3.45;1.10;;;;;;;8.50;87.60;100310.13;2481899;29;20051;-76
2024/03/16 04:09:38;;;;;;;4.30;1.65;;;;;;;8.52;87.72;100312.75;2481208;29;20661;-77
2024/03/16 04:10:52;;;;;;;1.77;1.10;;;;;;;8.54;87.92;100310.97;2490974;28;20054;-77
2024/03/16 04:12:09;;;;;;;3.92;1.25;;;;;;;8.54;88.05;100310.97;2493988;29;20043;-77
2024/03/16 04:13:22;;;;;;;4.00;1.33;;;;;;;8.56;87.87;100309.22;2481535;29;20047;-77
2024/03/16 04:14:37;;;;;;;1.35;1.17;;;;;;;8.57;88.00;100304.88;2482053;29;20412;-76
2024/03/16 04:15:50;;;;;;;1.98;1.13;;;;;;;8.57;87.90;100307.47;2481507;29;20051;-77
2024/03/16 04:17:05;;;;;;;3.83;1.10;;;;;;;8.57;87.81;100303.16;2481226;29;20098;-77
2024/03/16 04:18:19;;;;;;;3.13;1.27;;;;;;;8.56;88.13;100309.22;2486824;29;20140;-76
2024/03/16 04:19:33;;;;;;;3.38;1.30;;;;;;;8.56;88.06;100309.22;2480600;29;20568;-76
2024/03/16 04:20:47;;;;;;;4.10;1.38;;;;;;;8.56;87.86;100311.81;2490955;28;20051;-76
2024/03/16 04:22:01;;;;;;;3.80;1.30;;;;;;;8.57;87.98;100308.38;2496715;28;20046;-76
2024/03/16 04:23:15;;;;;;;2.30;1.40;;;;;;;8.56;87.91;100311.81;2487410;29;20051;-76
2024/03/16 04:24:29;;;;;;;1.98;0.80;;;;;;;8.58;87.90;100320.50;2479933;29;20047;-77
2024/03/16 04:25:43;;;;;;;3.15;1.38;;;;;;;8.58;88.24;100317.88;2494655;28;20432;-77
2024/03/16 04:26:57;;;;;;;6.05;1.33;;;;;;;8.59;88.05;100317.00;2486853;29;20051;-78
2024/03/16 04:28:12;;;;;;;1.77;1.10;;;;;;;8.59;88.09;100318.75;2481233;29;20050;-78
2024/03/16 04:29:27;;;;;;;1.23;0.90;;;;;;;8.59;88.35;100319.59;2496792;28;20159;-77
2024/03/16 04:30:40;;;;;;;2.08;0.95;;;;;;;8.59;88.12;100321.34;2487512;29;20105;-77
2024/03/16 04:31:55;;;;;;;3.25;1.05;;;;;;;8.58;88.21;100317.88;2478662;29;20102;-76
2024/03/16 04:33:08;;;;;;;1.20;1.00;;;;;;;8.57;88.06;100323.97;2481335;29;20513;-77
2024/03/16 04:34:25;;;;;;;1.73;0.80;;;;;;;8.55;88.14;100323.13;2477429;29;20043;-76
2024/03/16 04:35:38;;;;;;;2.45;1.50;;;;;;;8.54;88.24;100330.91;2481786;29;20095;-76
2024/03/16 04:36:53;;;;;;;6.55;1.60;;;;;;;8.51;87.95;100322.25;2487740;29;20047;-77
2024/03/16 04:38:09;;;;;;;4.55;1.40;;;;;;;8.49;88.11;100329.22;2480038;29;20051;-76
2024/03/16 04:39:25;;;;;;;1.67;1.10;;;;;;;8.48;88.19;100331.81;2481760;29;20487;-76
2024/03/16 04:40:39;;;;;;;2.92;1.23;;;;;;;8.45;87.97;100331.84;2491765;28;20122;-77
2024/03/16 04:41:53;;;;;;;1.80;0.90;;;;;;;8.42;88.05;100327.53;2486982;29;20055;-77
2024/03/16 04:43:07;;;;;;;3.58;1.70;;;;;;;8.40;88.05;100325.78;2481285;29;20051;-76
2024/03/16 04:44:22;;;;;;;2.20;1.13;;;;;;;8.38;88.10;100328.34;2477810;29;20051;-76
2024/03/16 04:45:35;;;;;;;2.63;1.30;;;;;;;8.38;87.97;100327.50;2493572;28;20047;-76
2024/03/16 04:46:50;;;;;;;3.38;1.67;;;;;;;8.37;87.92;100329.25;2487128;29;20053;-77
2024/03/16 04:48:04;;;;;;;0.88;0.88;;;;;;;8.37;88.03;100333.59;2480745;28;20086;-76
2024/03/16 04:49:19;;;;;;;2.50;1.30;;;;;;;8.35;87.99;100324.91;2486797;28;20156;-77
2024/03/16 04:50:33;;;;;;;1.75;1.20;;;;;;;8.36;88.09;100326.63;2480956;29;20464;-76
2024/03/16 04:51:48;;;;;;;4.45;1.42;;;;;;;8.35;88.22;100327.53;2489379;28;20047;-76
2024/03/16 04:53:01;;;;;;;2.65;1.10;;;;;;;8.36;88.35;100322.28;2479676;29;20067;-77
2024/03/16 04:54:16;;;;;;;4.65;1.27;;;;;;;8.38;88.16;100330.09;2486738;29;20468;-76
2024/03/16 04:55:29;;;;;;;1.75;1.27;;;;;;;8.40;88.33;100324.06;2489368;29;20506;-77
2024/03/16 04:56:44;;;;;;;3.70;1.75;;;;;;;8.43;88.36;100330.97;2480979;29;20047;-77
2024/03/16 04:58:02;;;;;;;2.83;1.02;;;;;;;8.44;88.42;100336.19;2480036;29;20527;-77
2024/03/16 04:59:17;;;;;;;4.85;1.42;;;;;;;8.45;88.30;100330.09;2482083;28;20071;-77
2024/03/16 05:00:30;;;;;;;5.35;1.35;;;;;;;8.44;88.36;100330.09;2488065;28;20043;-77
2024/03/16 05:01:45;;;;;;;6.35;1.42;;;;;;;8.43;88.41;100331.84;2485536;29;20051;-77
2024/03/16 05:02:59;;;;;;;2.45;2.03;;;;;;;8.43;88.32;100333.56;2481251;29;20098;-76
2024/03/16 05:04:13;;;;;;;1.73;1.15;;;;;;;8.42;88.49;100331.84;2487068;29;20051;-77
2024/03/16 05:05:27;;;;;;;2.35;1.30;;;;;;;8.42;88.39;100331.84;2480448;29;20138;-76
2024/03/16 05:06:42;;;;;;;5.60;1.55;;;;;;;8.43;88.54;100329.22;2487252;29;20440;-76
2024/03/16 05:07:55;;;;;;;2.58;1.30;;;;;;;8.45;88.70;100327.50;2486642;29;20559;-76
2024/03/16 05:09:10;;;;;;;1.52;1.42;;;;;;;8.48;88.66;100329.22;2480978;29;20085;-76
2024/03/16 05:10:24;;;;;;;1.55;1.20;;;;;;;8.51;88.80;100329.19;2480639;29;20043;-76
2024/03/16 05:11:39;;;;;;;3.08;1.23;;;;;;;8.52;88.59;100337.00;2490872;28;20130;-76
2024/03/16 05:12:53;;;;;;;3.05;1.13;;;;;;;8.54;88.82;100336.97;2486996;29;20051;-76
2024/03/16 05:14:07;;;;;;;11.00;1.75;;;;;;;8.56;88.83;100335.25;2480503;29;20444;-76
2024/03/16 05:15:21;;;;;;;1.42;1.17;;;;;;;8.58;88.90;100343.91;2478239;29;20048;-76
2024/03/16 05:16:35;;;;;;;4.70;1.30;;;;;;;8.59;88.74;100339.56;2489609;28;20418;-76
2024/03/16 05:17:49;;;;;;;1.35;1.25;;;;;;;8.61;88.91;100338.69;2480129;29;20058;-76
2024/03/16 05:19:04;;;;;;;1.48;1.02;;;;;;;8.63;88.71;100343.88;2480454;29;20051;-76
2024/03/16 05:20:18;;;;;;;3.20;1.77;;;;;;;8.64;89.03;100332.59;2490563;28;20051;-76
2024/03/16 05:21:32;;;;;;;1.92;1.20;;;;;;;8.65;89.10;100340.41;2486483;29;20053;-76
2024/03/16 05:22:48;;;;;;;2.17;1.40;;;;;;;8.67;88.88;100336.06;2487023;29;20058;-76
2024/03/16 05:24:03;;;;;;;6.55;1.23;;;;;;;8.68;88.92;100345.59;2487029;29;20179;-76
2024/03/16 05:25:16;;;;;;;2.22;1.52;;;;;;;8.69;88.83;100343.84;2486837;29;20059;-76
2024/03/16 05:26:31;;;;;;;4.00;1.20;;;;;;;8.71;88.78;100344.69;2490526;28;20054;-76
2024/03/16 05:27:45;;;;;;;3.95;1.20;;;;;;;8.72;88.85;100349.91;2486909;29;20113;-76
2024/03/16 05:28:59;;;;;;;1.88;1.30;;;;;;;8.73;88.83;100343.81;2478816;29;20059;-76
2024/03/16 05:30:13;;;;;;;3.15;1.27;;;;;;;8.76;89.07;100352.47;2480246;29;20050;-76
2024/03/16 05:31:28;;;;;;;3.00;1.20;;;;;;;8.78;88.93;100354.19;2480847;29;20047;-76
2024/03/16 05:32:42;;;;;;;1.05;1.00;;;;;;;8.80;88.95;100359.38;2480703;29;20673;-76
2024/03/16 05:33:57;;;;;;;4.57;1.85;;;;;;;8.81;88.89;100356.78;2490026;28;20101;-76
2024/03/16 05:35:10;;;;;;;1.80;1.23;;;;;;;8.84;89.07;100355.91;2486919;29;20057;-76
2024/03/16 05:36:25;;;;;;;9.10;2.03;;;;;;;8.86;88.82;100351.56;2477006;29;20048;-76
2024/03/16 05:37:39;;;;;;;1.27;1.10;;;;;;;8.87;88.84;100353.28;2492463;28;20050;-76
2024/03/16 05:38:53;;;;;;;1.35;1.02;;;;;;;8.88;88.86;100347.19;2496118;28;20089;-76
2024/03/16 05:40:10;;;;;;;2.40;1.40;;;;;;;8.90;88.91;100358.44;2496265;28;20051;-76
2024/03/16 05:41:24;;;;;;;2.30;1.40;;;;;;;8.90;88.83;100346.28;2492524;29;20039;-76
2024/03/16 05:42:38;;;;;;;3.40;1.17;;;;;;;8.92;89.03;100359.31;2481241;29;20051;-76
2024/03/16 05:43:53;;;;;;;2.22;1.23;;;;;;;8.94;89.06;100352.38;2480700;29;20073;-76
2024/03/16 05:45:07;;;;;;;1.63;0.82;;;;;;;8.95;88.96;100349.72;2479395;29;20074;-76
2024/03/16 05:46:21;;;;;;;1.67;0.88;;;;;;;8.96;88.98;100355.81;2486543;29;20531;-76
2024/03/16 05:47:36;;;;;;;2.53;1.00;;;;;;;8.96;88.95;100368.84;2489097;29;20046;-76
2024/03/16 05:48:50;;;;;;;2.22;1.05;;;;;;;8.99;88.89;100362.75;2480892;29;20074;-76